メインページ
METAR-TAF:

METAR-TAF

空港 :

ベリーズシティ, ベリーズ

フィリップス・S・W・ゴールドソン国際空港

緯度: 17-32N, 経度: 088-18W, 海抜: 5m

現時点の気象観測

当レポートは15分前の14:22(UTC)に作成
無風
気温 24°C
湿度 94%
気圧 1015 hPa
視程10km以上
高度400ftの雲は散在している

METAR: MZBZ 211422Z 00000KT 9999 SCT004 24/23 A3000 Q1015 NOSIG

時間: 08:37 (14:37 UTC)

予報

当レポートは4時間7分前の10:30(UTC)に作成
予報は21日の 12時(UTC)から 22日の 12時(UTC)まで有効
の風 7kt
視程10km以上
高度2300ftの雲はほとんどない
高度4500ftの雲は散在している
確率 30% :
21日の 14時(UTC)から 21日の 18時(UTC)まで一時的に
視程: 5000m
高度1500ftの千切れ雲あり
にわか雨

TAF: MZBZ 211030Z 2112/2212 08007KT 9999 FEW023 SCT045 PROB30 TEMPO 2114/2118 5000 SHRA BKN015

4,000以上の空港の気象観測と天気予報(METAR報とTAF報)

利用可能な観測所は地図上に黄色い丸と赤い丸で示す。

丸の上にカーソルを重ねると観測所名を参照できる。

次にクリックすると気象観測と天気予報を参照できる。

マップの切り替え:黒色「×」印の緑ボタンをクリックして拡大、「-」印の緑ボタンをクリックして縮小、緑色の三角印をクリックして隣りの地図に切り替え


METAR-TAF: